Time;durP1;ratioP1;P1;durP2;ratioP2;P2;SDS_P1;SDS_P2;PMS_P1;PMS_P2;Temp;Humidity;BMP_temperature;BMP_pressure;BME280_temperature;BME280_humidity;BME280_pressure;Samples;Min_cycle;Max_cycle;Signal;HPM_P1;HPM_P2
2023/05/29 00:02:01;;;;;;;9.75;3.00;;;15.60;76.60;;;;;;6189821;23;20086;-87
2023/05/29 00:04:28;;;;;;;11.82;3.40;;;15.60;76.50;;;;;;6190016;23;20014;-86
2023/05/29 00:06:53;;;;;;;10.00;3.17;;;15.60;76.50;;;;;;6189765;23;20012;-87
2023/05/29 00:09:19;;;;;;;12.88;3.28;;;15.60;76.40;;;;;;6216251;23;20000;-87
2023/05/29 00:11:47;;;;;;;12.70;3.08;;;15.60;76.30;;;;;;6189893;23;20005;-86
2023/05/29 00:14:13;;;;;;;14.32;3.53;;;15.60;76.30;;;;;;6216493;23;20331;-86
2023/05/29 00:16:39;;;;;;;12.13;3.13;;;15.50;76.20;;;;;;6190000;23;20430;-86
2023/05/29 00:19:05;;;;;;;11.48;3.35;;;15.50;76.10;;;;;;6189719;23;20039;-87
2023/05/29 00:21:30;;;;;;;11.43;3.67;;;15.50;76.00;;;;;;6189424;23;20012;-86
2023/05/29 00:23:56;;;;;;;13.20;3.25;;;15.50;75.90;;;;;;6212788;22;20058;-85
2023/05/29 00:26:21;;;;;;;12.02;2.97;;;15.50;75.90;;;;;;6264087;23;19996;-86
2023/05/29 00:28:47;;;;;;;10.85;3.15;;;15.50;75.80;;;;;;6263436;23;20015;-84
2023/05/29 00:31:12;;;;;;;9.43;3.25;;;15.50;75.90;;;;;;6263353;23;20026;-86
2023/05/29 00:33:38;;;;;;;12.30;3.60;;;15.50;75.70;;;;;;6261753;23;20489;-85
2023/05/29 00:36:05;;;;;;;14.70;3.70;;;15.50;75.70;;;;;;6262377;23;20004;-85
2023/05/29 00:38:30;;;;;;;10.57;2.97;;;15.50;75.70;;;;;;6260873;23;20008;-85
2023/05/29 00:40:56;;;;;;;12.85;3.90;;;15.50;75.60;;;;;;6260406;23;20051;-85
2023/05/29 00:43:21;;;;;;;11.50;3.88;;;15.50;75.50;;;;;;6261023;23;20015;-84
2023/05/29 00:45:47;;;;;;;10.65;3.35;;;15.40;75.40;;;;;;6260421;23;20004;-85
2023/05/29 00:48:13;;;;;;;12.55;3.50;;;15.40;75.40;;;;;;6260747;23;20016;-85
2023/05/29 00:50:38;;;;;;;13.07;3.78;;;15.40;75.40;;;;;;6261721;23;20007;-85
2023/05/29 00:53:06;;;;;;;13.10;3.92;;;15.50;75.30;;;;;;6264562;23;20004;-85
2023/05/29 00:55:31;;;;;;;13.60;3.90;;;15.40;75.20;;;;;;6264958;23;20012;-85
2023/05/29 00:57:57;;;;;;;14.13;4.03;;;15.50;75.20;;;;;;6264154;23;20004;-85
2023/05/29 01:00:23;;;;;;;11.98;3.55;;;15.50;75.00;;;;;;6259545;23;20011;-85
2023/05/29 01:02:48;;;;;;;12.02;3.40;;;15.50;75.00;;;;;;6263284;23;20004;-85
2023/05/29 01:05:19;;;;;;;12.70;3.97;;;15.40;74.70;;;;;;6263141;23;20016;-85
2023/05/29 01:07:45;;;;;;;13.48;4.05;;;15.50;74.90;;;;;;6263186;23;20068;-85
2023/05/29 01:10:11;;;;;;;11.57;3.53;;;15.50;74.90;;;;;;6262058;23;20015;-85
2023/05/29 01:12:53;;;;;;;10.18;3.42;;;15.50;74.80;;;;;;6264842;23;20004;-86
2023/05/29 01:15:54;;;;;;;11.88;3.60;;;15.40;74.80;;;;;;6266218;23;20000;-85
2023/05/29 01:18:31;;;;;;;12.05;3.30;;;15.50;74.80;;;;;;6261959;23;20004;-85
2023/05/29 01:21:12;;;;;;;13.65;3.67;;;15.40;74.60;;;;;;6264749;23;20023;-85
2023/05/29 01:23:56;;;;;;;13.57;3.97;;;15.40;74.60;;;;;;6264392;23;20008;-85
2023/05/29 01:26:46;;;;;;;10.45;3.72;;;15.50;74.60;;;;;;6264896;23;20012;-85
2023/05/29 01:29:15;;;;;;;11.93;3.58;;;15.40;74.50;;;;;;6264906;23;20015;-85
2023/05/29 01:31:43;;;;;;;13.88;3.53;;;15.40;74.60;;;;;;6261954;23;20030;-85
2023/05/29 01:34:09;;;;;;;13.27;3.70;;;15.40;74.60;;;;;;6261036;23;20039;-85
2023/05/29 01:36:35;;;;;;;10.70;3.22;;;15.40;74.50;;;;;;6261009;23;20004;-85
2023/05/29 01:39:01;;;;;;;11.75;3.63;;;15.40;74.50;;;;;;6261096;23;20076;-85
2023/05/29 01:41:28;;;;;;;12.20;3.50;;;15.40;74.50;;;;;;6263809;23;20008;-85
2023/05/29 01:43:57;;;;;;;12.00;2.97;;;15.40;74.40;;;;;;6267569;23;20015;-85
2023/05/29 01:46:25;;;;;;;10.07;2.90;;;15.40;74.40;;;;;;6268303;23;20000;-85
2023/05/29 01:48:52;;;;;;;11.82;2.80;;;15.40;74.40;;;;;;6267165;23;20003;-85
2023/05/29 01:51:18;;;;;;;13.13;3.38;;;15.30;74.30;;;;;;6267623;23;20015;-85
2023/05/29 01:53:44;;;;;;;11.38;3.58;;;15.40;74.30;;;;;;6268192;23;20399;-85
2023/05/29 01:56:10;;;;;;;10.23;3.00;;;15.30;74.20;;;;;;6268168;23;20346;-85
2023/05/29 01:58:38;;;;;;;11.25;3.17;;;15.40;74.30;;;;;;6268063;23;20031;-84
2023/05/29 02:01:03;;;;;;;11.70;3.10;;;15.30;74.20;;;;;;6262547;23;20062;-84
2023/05/29 02:03:29;;;;;;;9.13;3.03;;;15.30;74.10;;;;;;6255832;23;20004;-84
2023/05/29 02:05:59;;;;;;;10.63;3.20;;;15.30;74.20;;;;;;6254402;23;20388;-84
2023/05/29 02:08:24;;;;;;;12.68;3.28;;;15.30;74.20;;;;;;6255319;23;20008;-84
2023/05/29 02:10:50;;;;;;;11.65;3.40;;;15.30;74.10;;;;;;6256549;23;20123;-85
2023/05/29 02:13:16;;;;;;;11.27;3.20;;;15.30;74.10;;;;;;6256828;23;20094;-84
2023/05/29 02:15:41;;;;;;;11.85;3.35;;;15.30;74.10;;;;;;6258162;23;20004;-84
2023/05/29 02:18:13;;;;;;;12.52;3.13;;;15.30;74.10;;;;;;6257825;23;20008;-84
2023/05/29 02:20:39;;;;;;;12.93;3.08;;;15.30;74.00;;;;;;6255177;23;20000;-84
2023/05/29 02:23:05;;;;;;;13.30;3.92;;;15.30;73.90;;;;;;6254682;23;20046;-84
2023/05/29 02:25:30;;;;;;;12.10;3.15;;;15.30;74.00;;;;;;6254943;23;20020;-84
2023/05/29 02:27:56;;;;;;;15.38;3.40;;;15.30;73.90;;;;;;6251200;23;20030;-84
2023/05/29 02:30:21;;;;;;;11.65;2.90;;;15.30;73.70;;;;;;6227862;23;20000;-84
2023/05/29 02:32:47;;;;;;;12.00;3.47;;;15.20;73.70;;;;;;6228137;23;20007;-84
2023/05/29 02:35:17;;;;;;;12.60;3.03;;;15.30;73.70;;;;;;6255458;23;20067;-84
2023/05/29 02:37:42;;;;;;;11.18;3.13;;;15.30;73.60;;;;;;6234424;23;20004;-85
2023/05/29 02:40:08;;;;;;;9.73;2.78;;;15.30;73.50;;;;;;6236633;23;20023;-85
2023/05/29 02:42:34;;;;;;;10.77;2.85;;;15.20;73.40;;;;;;6237063;23;20008;-85
2023/05/29 02:44:59;;;;;;;11.18;3.00;;;15.30;73.50;;;;;;6237572;23;20004;-85
2023/05/29 02:47:25;;;;;;;64.40;6.85;;;15.20;73.60;;;;;;6236894;23;20437;-85
2023/05/29 02:49:51;;;;;;;116.63;11.02;;;15.30;73.60;;;;;;6236652;23;20000;-85
2023/05/29 02:52:16;;;;;;;18.98;4.03;;;15.30;73.70;;;;;;6237019;23;20004;-85
2023/05/29 02:54:41;;;;;;;17.80;4.18;;;15.30;73.50;;;;;;6261521;23;20004;-84
2023/05/29 02:57:07;;;;;;;13.65;2.85;;;15.30;73.50;;;;;;6232152;23;20511;-85
2023/05/29 02:59:33;;;;;;;13.43;2.65;;;15.20;73.40;;;;;;6234445;23;20000;-85
2023/05/29 03:01:58;;;;;;;16.75;3.22;;;15.30;73.30;;;;;;6235308;23;19996;-85
2023/05/29 03:04:24;;;;;;;12.73;3.22;;;15.20;73.30;;;;;;6235219;23;20004;-85
2023/05/29 03:06:49;;;;;;;18.13;3.78;;;15.30;73.40;;;;;;6233015;23;20283;-85
2023/05/29 03:09:16;;;;;;;13.60;2.88;;;15.20;73.30;;;;;;6233908;23;20000;-85
2023/05/29 03:11:42;;;;;;;11.23;2.67;;;15.30;73.30;;;;;;6233987;23;20056;-85
2023/05/29 03:14:08;;;;;;;12.93;2.85;;;15.30;73.40;;;;;;6233752;23;20011;-85
2023/05/29 03:57:37;;;;;;;11.32;2.88;;;15.10;72.80;;;;;;5152482;27;1189259;-83
2023/05/29 04:00:03;;;;;;;12.32;2.65;;;15.10;73.40;;;;;;5165700;27;20040;-84
2023/05/29 04:02:28;;;;;;;12.18;2.85;;;15.10;73.30;;;;;;5150549;28;20029;-85
2023/05/29 04:04:55;;;;;;;11.38;2.90;;;15.10;73.40;;;;;;5150632;28;20055;-85
2023/05/29 04:07:21;;;;;;;12.05;2.67;;;15.10;73.30;;;;;;5150417;28;20016;-85
2023/05/29 04:09:47;;;;;;;9.95;2.40;;;15.10;73.30;;;;;;5150140;28;20020;-85
2023/05/29 04:12:13;;;;;;;11.50;2.67;;;15.20;73.40;;;;;;5150526;28;20104;-85
2023/05/29 04:14:39;;;;;;;13.20;2.75;;;15.10;73.30;;;;;;5151229;28;20054;-85
2023/05/29 04:17:04;;;;;;;11.30;3.00;;;15.10;73.20;;;;;;5150706;28;20031;-85
2023/05/29 04:19:30;;;;;;;10.68;2.63;;;15.20;73.20;;;;;;5150152;28;20015;-84
2023/05/29 04:21:55;;;;;;;11.90;2.85;;;15.10;73.10;;;;;;5151107;28;20045;-87
2023/05/29 04:24:21;;;;;;;11.23;2.45;;;15.10;73.10;;;;;;5151125;28;20021;-84
2023/05/29 04:26:46;;;;;;;10.32;2.65;;;15.10;73.00;;;;;;5150802;28;20048;-85
2023/05/29 04:29:13;;;;;;;12.88;2.50;;;15.10;72.90;;;;;;5150486;28;20053;-85
2023/05/29 04:31:39;;;;;;;13.27;2.58;;;15.10;72.80;;;;;;5150839;28;20026;-85
2023/05/29 04:34:04;;;;;;;10.98;2.28;;;15.10;72.70;;;;;;5150474;28;20090;-84
2023/05/29 04:36:32;;;;;;;11.48;3.30;;;15.20;72.70;;;;;;5151069;28;20020;-84
2023/05/29 04:38:58;;;;;;;10.77;2.63;;;15.50;72.70;;;;;;5149814;28;20044;-84
2023/05/29 04:41:29;;;;;;;11.23;2.83;;;15.10;72.50;;;;;;5151118;28;20026;-85
2023/05/29 04:43:56;;;;;;;13.65;3.05;;;15.20;72.60;;;;;;5150947;28;20049;-85
2023/05/29 04:46:24;;;;;;;12.50;2.90;;;15.20;72.60;;;;;;5150886;28;20033;-85
2023/05/29 04:48:53;;;;;;;15.60;2.90;;;15.10;72.40;;;;;;5151086;28;20023;-84
2023/05/29 04:51:21;;;;;;;16.63;2.90;;;15.10;72.30;;;;;;5149782;28;20031;-86
2023/05/29 04:53:47;;;;;;;7.85;2.25;;;15.20;72.30;;;;;;5150688;28;20023;-84
2023/05/29 04:56:14;;;;;;;10.98;2.67;;;15.20;72.30;;;;;;5149569;28;20011;-83
2023/05/29 04:58:41;;;;;;;11.85;2.53;;;15.20;72.20;;;;;;5150883;28;20044;-84
2023/05/29 05:01:08;;;;;;;10.88;2.38;;;15.20;72.10;;;;;;5150251;28;20019;-85
2023/05/29 05:03:34;;;;;;;11.35;2.17;;;15.20;72.10;;;;;;5150228;28;20019;-84
2023/05/29 05:06:02;;;;;;;9.00;2.20;;;15.20;71.90;;;;;;5150551;28;20023;-86
2023/05/29 05:08:30;;;;;;;11.45;2.40;;;15.20;71.80;;;;;;5140145;28;20042;-84
2023/05/29 05:10:57;;;;;;;14.38;2.78;;;15.20;71.80;;;;;;5136408;28;20028;-85
2023/05/29 05:13:22;;;;;;;11.48;2.20;;;15.20;71.80;;;;;;5137213;28;20030;-84
2023/05/29 05:15:48;;;;;;;12.70;2.53;;;15.20;71.70;;;;;;5134282;28;20450;-85
2023/05/29 05:18:13;;;;;;;13.27;2.83;;;15.20;71.60;;;;;;5129251;28;20024;-85
2023/05/29 05:20:39;;;;;;;11.70;2.50;;;15.20;71.60;;;;;;5129355;28;20027;-85
2023/05/29 05:23:04;;;;;;;11.10;2.97;;;15.20;71.60;;;;;;5129226;28;20024;-85
2023/05/29 05:25:30;;;;;;;11.05;2.33;;;15.20;71.60;;;;;;5128338;28;20030;-84
2023/05/29 05:27:55;;;;;;;10.95;2.72;;;15.10;71.40;;;;;;5128154;28;20023;-84
2023/05/29 05:30:21;;;;;;;9.18;2.15;;;15.20;71.50;;;;;;5129446;28;20028;-85
2023/05/29 05:32:46;;;;;;;9.63;2.40;;;15.10;71.40;;;;;;5130147;28;20099;-85
2023/05/29 05:35:13;;;;;;;13.70;2.72;;;15.10;71.30;;;;;;5130123;28;20027;-84
2023/05/29 05:37:38;;;;;;;10.82;2.92;;;15.20;71.30;;;;;;5130933;28;20023;-84
2023/05/29 05:40:06;;;;;;;12.02;2.92;;;15.20;71.30;;;;;;5130410;28;20050;-84
2023/05/29 05:42:32;;;;;;;13.57;2.70;;;15.20;71.30;;;;;;5130781;28;20020;-85
2023/05/29 05:44:57;;;;;;;12.38;2.53;;;15.80;71.50;;;;;;5129981;28;20027;-84
2023/05/29 05:47:23;;;;;;;11.00;2.33;;;15.20;71.10;;;;;;5129367;28;20030;-84
2023/05/29 05:49:51;;;;;;;14.48;3.08;;;15.10;71.10;;;;;;5129651;28;20047;-84
2023/05/29 05:52:17;;;;;;;11.93;2.55;;;15.20;71.10;;;;;;5130590;28;20011;-85
2023/05/29 05:54:43;;;;;;;11.30;2.85;;;15.20;71.00;;;;;;5130413;28;20126;-83
2023/05/29 05:57:09;;;;;;;10.50;2.72;;;15.20;70.90;;;;;;5129274;28;20039;-84
2023/05/29 05:59:34;;;;;;;11.70;2.55;;;16.90;71.90;;;;;;5128624;28;20023;-85
2023/05/29 06:02:00;;;;;;;11.02;2.45;;;15.20;70.90;;;;;;5128984;28;20024;-84
2023/05/29 06:04:25;;;;;;;10.63;2.50;;;15.20;70.80;;;;;;5129759;28;20023;-84
2023/05/29 06:06:51;;;;;;;10.98;2.85;;;15.20;70.80;;;;;;5126871;28;20030;-84
2023/05/29 06:09:16;;;;;;;8.13;2.30;;;15.20;70.70;;;;;;5105898;28;20096;-84
2023/05/29 06:11:42;;;;;;;10.48;2.53;;;15.20;70.70;;;;;;5119272;28;20008;-84
2023/05/29 06:14:07;;;;;;;12.57;2.70;;;15.20;70.70;;;;;;5127391;28;20028;-84
2023/05/29 06:16:34;;;;;;;14.48;3.10;;;15.20;70.60;;;;;;5128122;28;20027;-84
2023/05/29 06:18:59;;;;;;;10.85;2.53;;;15.20;70.50;;;;;;5126838;28;20028;-84
2023/05/29 06:21:25;;;;;;;9.77;2.17;;;15.20;70.40;;;;;;5127931;28;20031;-85
2023/05/29 06:23:51;;;;;;;12.07;3.10;;;15.20;70.30;;;;;;5127340;28;20023;-84
2023/05/29 06:26:16;;;;;;;11.43;2.53;;;15.20;70.20;;;;;;5127402;28;20053;-83
2023/05/29 06:28:42;;;;;;;11.18;2.80;;;15.20;70.20;;;;;;5128872;28;20031;-84
2023/05/29 06:31:07;;;;;;;11.48;3.03;;;15.50;70.40;;;;;;5127727;28;20024;-85
2023/05/29 06:33:33;;;;;;;10.45;2.53;;;15.20;70.20;;;;;;5128756;28;20027;-85
2023/05/29 06:35:58;;;;;;;9.85;2.45;;;15.30;70.10;;;;;;5128761;28;20055;-84
2023/05/29 06:38:24;;;;;;;11.75;2.72;;;15.30;70.10;;;;;;5128808;28;20024;-84
2023/05/29 06:40:50;;;;;;;13.43;3.00;;;15.30;70.00;;;;;;5128374;28;20012;-84
2023/05/29 06:43:15;;;;;;;11.15;2.65;;;15.30;70.10;;;;;;5129383;28;20028;-84
2023/05/29 06:45:41;;;;;;;11.85;2.42;;;15.30;70.00;;;;;;5128081;28;20069;-84
2023/05/29 06:48:06;;;;;;;10.35;2.55;;;15.30;69.90;;;;;;5125897;28;20467;-86
2023/05/29 06:50:33;;;;;;;10.98;2.80;;;15.30;69.90;;;;;;5113778;28;20083;-84
2023/05/29 06:52:59;;;;;;;14.02;2.70;;;15.40;69.90;;;;;;5095733;28;20031;-85
2023/05/29 06:55:24;;;;;;;9.30;2.30;;;15.40;69.80;;;;;;5091899;28;20035;-85
2023/05/29 06:57:50;;;;;;;9.55;2.20;;;15.40;69.80;;;;;;5093927;28;20096;-85
2023/05/29 07:00:16;;;;;;;11.32;2.47;;;15.40;69.60;;;;;;5092636;28;20028;-89
2023/05/29 07:02:42;;;;;;;10.70;2.78;;;15.40;69.50;;;;;;5093180;28;20023;-86
2023/05/29 07:05:08;;;;;;;12.02;2.90;;;15.40;70.00;;;;;;5091943;28;20080;-87
2023/05/29 07:07:33;;;;;;;13.10;2.85;;;15.40;69.30;;;;;;5093052;28;20031;-86
2023/05/29 07:09:59;;;;;;;11.75;2.58;;;15.40;69.10;;;;;;5111466;28;20039;-85
2023/05/29 07:12:24;;;;;;;14.02;3.10;;;15.40;69.20;;;;;;5092294;28;20554;-86
2023/05/29 07:14:50;;;;;;;10.38;2.50;;;15.40;69.10;;;;;;5091994;28;20032;-85
2023/05/29 07:17:15;;;;;;;13.52;2.92;;;15.40;69.00;;;;;;5092576;28;20031;-86
2023/05/29 07:19:41;;;;;;;11.02;2.53;;;15.40;69.00;;;;;;5109955;28;20219;-85
2023/05/29 07:22:07;;;;;;;10.05;2.60;;;15.40;69.10;;;;;;5110422;28;20346;-86
2023/05/29 07:24:32;;;;;;;12.35;2.92;;;15.40;69.00;;;;;;5111556;28;20035;-86
2023/05/29 07:26:58;;;;;;;9.57;2.50;;;15.50;69.00;;;;;;5112475;28;20027;-87
2023/05/29 07:29:24;;;;;;;11.07;2.78;;;15.40;68.90;;;;;;5094177;28;20024;-86
2023/05/29 07:31:50;;;;;;;13.48;2.95;;;15.40;68.80;;;;;;5092726;28;20327;-85
2023/05/29 07:34:16;;;;;;;23.98;3.50;;;15.40;68.80;;;;;;5092701;28;20027;-86
2023/05/29 07:37:02;;;;;;;23.77;3.53;;;15.40;68.80;;;;;;5111075;28;20260;-85
2023/05/29 07:39:28;;;;;;;14.68;2.75;;;15.40;68.70;;;;;;5111026;28;20081;-86
2023/05/29 07:41:54;;;;;;;15.82;2.65;;;15.40;68.80;;;;;;5091904;28;20031;-85
2023/05/29 07:44:19;;;;;;;15.25;3.08;;;15.50;68.80;;;;;;5092007;28;20118;-86
2023/05/29 07:46:45;;;;;;;14.95;3.17;;;15.50;68.80;;;;;;5092668;28;20028;-87
2023/05/29 07:49:11;;;;;;;12.73;2.97;;;15.50;68.80;;;;;;5092996;28;20038;-84
2023/05/29 07:51:36;;;;;;;14.98;3.20;;;15.50;68.90;;;;;;5093707;28;20073;-84
2023/05/29 07:54:02;;;;;;;12.00;2.60;;;15.50;69.00;;;;;;5114305;28;20023;-84
2023/05/29 07:56:28;;;;;;;13.55;3.00;;;15.60;69.10;;;;;;5104686;28;20027;-83
2023/05/29 07:58:54;;;;;;;11.77;2.50;;;15.60;69.10;;;;;;5085298;28;20023;-83
2023/05/29 08:01:21;;;;;;;14.50;2.70;;;15.60;69.10;;;;;;5110583;28;20103;-85
2023/05/29 08:03:47;;;;;;;12.52;2.63;;;15.60;69.10;;;;;;5092183;28;20298;-82
2023/05/29 08:06:12;;;;;;;13.57;2.50;;;15.60;69.10;;;;;;5110506;28;20020;-83
2023/05/29 08:08:38;;;;;;;16.83;3.22;;;15.60;69.00;;;;;;5091570;28;20032;-83
2023/05/29 08:11:03;;;;;;;11.25;2.90;;;15.60;69.00;;;;;;5091894;28;20024;-84
2023/05/29 08:13:30;;;;;;;10.90;2.28;;;15.70;69.00;;;;;;5110949;28;20413;-84
2023/05/29 08:15:55;;;;;;;12.02;2.95;;;15.60;69.00;;;;;;5112248;28;20469;-84
2023/05/29 08:18:21;;;;;;;11.75;2.70;;;15.60;69.00;;;;;;5114353;28;20057;-83
2023/05/29 08:20:47;;;;;;;12.93;2.83;;;15.60;69.10;;;;;;5113729;28;20034;-82
2023/05/29 08:23:13;;;;;;;13.32;2.50;;;15.70;69.30;;;;;;5093806;28;20020;-83
2023/05/29 08:25:38;;;;;;;15.85;2.97;;;15.60;69.30;;;;;;5109711;28;20550;-80
2023/05/29 08:28:04;;;;;;;10.00;2.55;;;15.70;69.20;;;;;;5090309;28;20514;-79
2023/05/29 08:30:29;;;;;;;11.70;2.95;;;15.60;69.00;;;;;;5090229;28;20497;-80
2023/05/29 08:32:55;;;;;;;11.52;2.88;;;15.60;68.90;;;;;;5107855;28;20418;-79
2023/05/29 08:35:20;;;;;;;11.73;2.92;;;15.60;69.00;;;;;;5108525;28;20032;-81
2023/05/29 08:37:46;;;;;;;17.33;3.13;;;15.60;69.10;;;;;;5108346;28;20669;-79
2023/05/29 08:40:12;;;;;;;12.43;2.85;;;15.70;68.90;;;;;;5108510;28;20015;-80
2023/05/29 08:42:52;;;;;;;15.23;3.15;;;15.70;68.90;;;;;;5109273;28;20027;-79
2023/05/29 08:45:21;;;;;;;11.40;2.97;;;15.70;69.00;;;;;;5112416;28;20054;-79
2023/05/29 08:47:51;;;;;;;15.63;3.05;;;15.80;69.30;;;;;;5094582;28;20023;-81
2023/05/29 08:50:18;;;;;;;13.30;3.03;;;15.80;69.30;;;;;;5095170;28;20023;-81
2023/05/29 08:52:44;;;;;;;14.77;2.80;;;15.80;69.60;;;;;;5112515;28;20310;-81
2023/05/29 08:55:09;;;;;;;14.15;3.08;;;15.90;69.40;;;;;;5094375;28;20023;-81
2023/05/29 08:57:37;;;;;;;9.82;2.70;;;15.90;69.20;;;;;;5094284;28;20074;-81
2023/05/29 09:00:12;;;;;;;14.75;2.92;;;15.90;69.30;;;;;;5113000;28;20115;-81
2023/05/29 09:02:39;;;;;;;14.57;3.30;;;16.00;69.20;;;;;;5094441;28;20020;-81
2023/05/29 09:05:06;;;;;;;15.07;3.00;;;16.10;68.60;;;;;;5094135;28;20307;-81
2023/05/29 09:07:32;;;;;;;14.73;2.40;;;16.20;68.30;;;;;;5094936;28;20490;-80
2023/05/29 09:09:58;;;;;;;14.95;3.13;;;16.30;68.30;;;;;;5094456;28;20333;-78
2023/05/29 09:12:24;;;;;;;10.55;2.58;;;16.30;68.40;;;;;;5094304;28;20032;-80
2023/05/29 09:14:50;;;;;;;12.73;3.10;;;16.30;68.30;;;;;;5113469;28;20028;-80
2023/05/29 09:17:16;;;;;;;12.90;3.00;;;16.40;68.40;;;;;;5113093;28;20029;-81
2023/05/29 09:19:42;;;;;;;14.45;3.25;;;16.40;68.60;;;;;;5095995;28;20081;-80
2023/05/29 09:22:10;;;;;;;13.02;2.70;;;16.40;68.70;;;;;;5096235;28;20028;-82
2023/05/29 09:24:38;;;;;;;13.48;2.70;;;16.40;68.80;;;;;;5113469;28;20016;-81
2023/05/29 09:27:04;;;;;;;9.88;2.80;;;16.40;68.70;;;;;;5114002;28;20478;-81
2023/05/29 09:29:43;;;;;;;9.88;2.53;;;16.50;68.80;;;;;;5096951;28;20088;-82
2023/05/29 09:32:11;;;;;;;11.40;3.05;;;16.50;68.70;;;;;;5116424;28;20027;-83
2023/05/29 09:34:37;;;;;;;9.90;2.95;;;16.50;68.70;;;;;;5098855;28;20055;-84
2023/05/29 09:37:10;;;;;;;10.55;2.58;;;16.50;68.80;;;;;;5098709;28;20058;-85
2023/05/29 09:39:42;;;;;;;12.25;2.30;;;16.60;68.90;;;;;;5119056;28;20483;-86
2023/05/29 09:42:08;;;;;;;8.68;2.40;;;16.60;69.00;;;;;;5101697;28;20058;-87
2023/05/29 09:44:34;;;;;;;10.10;2.10;;;16.60;69.00;;;;;;5113075;28;20028;-83
2023/05/29 09:47:01;;;;;;;9.80;2.60;;;16.60;69.00;;;;;;5097126;28;20325;-89
2023/05/29 09:49:29;;;;;;;8.55;2.45;;;16.60;69.10;;;;;;5104315;28;20502;-86
2023/05/29 09:51:55;;;;;;;7.47;2.42;;;16.60;69.20;;;;;;5114182;28;20039;-85
2023/05/29 09:54:21;;;;;;;8.77;2.38;;;16.60;69.10;;;;;;5114209;28;20035;-83
2023/05/29 09:56:47;;;;;;;11.13;2.58;;;16.60;69.20;;;;;;5111366;28;20395;-83
2023/05/29 09:59:14;;;;;;;11.20;2.47;;;16.70;69.30;;;;;;5111439;28;20445;-84
2023/05/29 10:01:42;;;;;;;9.68;2.10;;;16.70;69.20;;;;;;5112979;28;20499;-83
2023/05/29 10:04:11;;;;;;;6.72;2.10;;;16.70;69.40;;;;;;5113778;28;20027;-83
2023/05/29 10:06:40;;;;;;;8.73;2.47;;;16.70;69.40;;;;;;5080243;28;20319;-85
2023/05/29 10:09:12;;;;;;;9.10;2.28;;;16.70;69.40;;;;;;5091746;28;20024;-88
2023/05/29 10:11:42;;;;;;;9.13;2.13;;;16.70;69.40;;;;;;5097887;28;20032;-89
2023/05/29 10:14:14;;;;;;;9.77;2.45;;;16.70;69.30;;;;;;5100548;28;20032;-89
2023/05/29 10:16:43;;;;;;;8.68;2.40;;;16.80;69.50;;;;;;5102994;28;20028;-87
2023/05/29 10:19:13;;;;;;;8.18;2.25;;;16.70;69.50;;;;;;5103204;28;20032;-88
2023/05/29 10:21:40;;;;;;;8.43;2.05;;;16.80;69.60;;;;;;5103045;28;20124;-86
2023/05/29 10:24:07;;;;;;;8.88;1.95;;;16.80;69.50;;;;;;5102761;28;20478;-85
2023/05/29 10:26:36;;;;;;;10.80;3.08;;;16.80;69.50;;;;;;5102490;28;20031;-89
2023/05/29 10:29:15;;;;;;;10.48;2.30;;;16.70;69.50;;;;;;5104292;28;20031;-91
2023/05/29 10:32:12;;;;;;;7.78;2.22;;;16.80;69.50;;;;;;5099095;28;20189;-89
2023/05/29 10:34:43;;;;;;;9.57;2.30;;;16.90;69.50;;;;;;5115930;28;20036;-87
2023/05/29 10:37:24;;;;;;;;;;;16.90;69.50;;;;;;5097766;28;20176;-88
2023/05/29 10:39:50;;;;;;;6.78;1.98;;;16.90;69.50;;;;;;5092087;28;20325;-87
2023/05/29 10:42:42;;;;;;;8.15;2.05;;;16.90;69.50;;;;;;5084995;28;20077;-87
2023/05/29 10:45:09;;;;;;;7.45;2.00;;;16.90;69.40;;;;;;5073104;28;20078;-86
2023/05/29 10:47:34;;;;;;;7.85;1.63;;;16.90;69.40;;;;;;5091026;28;20069;-89
2023/05/29 10:50:01;;;;;;;9.63;2.33;;;17.00;69.50;;;;;;5070813;28;20483;-84
2023/05/29 10:52:31;;;;;;;7.93;2.30;;;17.00;69.50;;;;;;5073163;28;20032;-88
2023/05/29 10:54:57;;;;;;;8.25;2.22;;;17.00;69.50;;;;;;5073722;28;20036;-84
2023/05/29 10:57:23;;;;;;;8.45;2.10;;;17.00;69.60;;;;;;5072519;28;20059;-85
2023/05/29 10:59:58;;;;;;;7.78;2.35;;;17.00;69.40;;;;;;5074635;28;20024;-86
2023/05/29 11:02:23;;;;;;;7.28;1.70;;;16.90;69.50;;;;;;5085612;28;20438;-86
2023/05/29 11:05:05;;;;;;;7.80;2.50;;;16.90;69.70;;;;;;5113032;28;20031;-85
2023/05/29 11:07:51;;;;;;;7.20;2.17;;;16.90;69.80;;;;;;5085841;28;20034;-87
2023/05/29 11:10:16;;;;;;;7.95;1.98;;;16.90;70.00;;;;;;5092251;28;20392;-85
2023/05/29 11:13:05;;;;;;;8.50;2.38;;;16.90;70.70;;;;;;5091667;28;20027;-86
2023/05/29 11:15:30;;;;;;;8.43;2.03;;;16.90;70.30;;;;;;5076854;28;20047;-86
2023/05/29 11:18:06;;;;;;;7.93;1.90;;;16.90;70.30;;;;;;5079998;28;20571;-85
2023/05/29 11:20:48;;;;;;;9.65;2.20;;;16.80;70.20;;;;;;5092322;28;20391;-87
2023/05/29 11:23:17;;;;;;;18.48;2.95;;;16.80;70.40;;;;;;5093223;28;20024;-87
2023/05/29 11:25:45;;;;;;;17.42;2.53;;;16.80;70.30;;;;;;5093257;28;20034;-86
2023/05/29 11:28:11;;;;;;;12.40;2.63;;;16.90;70.30;;;;;;5093686;28;20027;-87
2023/05/29 11:30:47;;;;;;;13.10;2.50;;;16.90;70.30;;;;;;5111068;28;20046;-86
2023/05/29 11:33:24;;;;;;;15.05;3.00;;;16.80;70.20;;;;;;5092796;28;20024;-85
2023/05/29 11:35:56;;;;;;;12.38;2.28;;;16.90;70.20;;;;;;5097210;28;20028;-85
2023/05/29 11:38:22;;;;;;;12.65;2.58;;;16.90;70.30;;;;;;5093143;28;20049;-83
2023/05/29 11:40:49;;;;;;;16.25;3.47;;;16.90;70.30;;;;;;5095944;28;20023;-87
2023/05/29 11:45:58;;;;;;;13.65;2.80;;;16.80;70.60;;;;;;5009817;28;20406;-84
2023/05/29 11:48:24;;;;;;;13.77;2.47;;;16.80;70.60;;;;;;4993832;28;20054;-83
2023/05/29 11:50:50;;;;;;;13.98;2.60;;;16.80;70.50;;;;;;4994564;28;20024;-83
2023/05/29 11:53:15;;;;;;;13.70;2.17;;;16.80;70.60;;;;;;4994157;28;20053;-82
2023/05/29 11:55:41;;;;;;;15.50;2.90;;;16.80;70.70;;;;;;4994425;28;20433;-83
2023/05/29 11:58:07;;;;;;;12.15;2.17;;;16.80;70.60;;;;;;5012426;28;20037;-82
2023/05/29 12:00:37;;;;;;;13.88;2.63;;;16.80;70.70;;;;;;4994558;28;20045;-83
2023/05/29 12:03:04;;;;;;;15.10;2.80;;;16.80;70.80;;;;;;5012453;28;20030;-82
2023/05/29 12:05:49;;;;;;;9.93;2.45;;;16.80;70.80;;;;;;4994359;28;20117;-82
2023/05/29 12:08:14;;;;;;;9.65;2.60;;;16.80;70.90;;;;;;4994674;28;20053;-82
2023/05/29 12:10:48;;;;;;;10.65;2.72;;;16.80;71.00;;;;;;5012054;28;20053;-82
2023/05/29 12:13:16;;;;;;;8.63;2.25;;;16.80;71.00;;;;;;4994631;28;20030;-84
2023/05/29 12:15:43;;;;;;;10.43;2.40;;;16.80;71.00;;;;;;5011898;28;20501;-82
2023/05/29 12:18:08;;;;;;;10.93;2.53;;;16.80;71.00;;;;;;4996008;28;20500;-82
2023/05/29 12:20:34;;;;;;;9.90;2.45;;;16.80;71.20;;;;;;5014620;28;20018;-83
2023/05/29 12:23:01;;;;;;;9.45;2.13;;;16.80;71.20;;;;;;5014863;28;20022;-83
2023/05/29 12:25:27;;;;;;;9.63;2.05;;;16.80;71.10;;;;;;4998138;28;20026;-82
2023/05/29 12:27:56;;;;;;;8.98;2.72;;;16.80;71.10;;;;;;5015913;28;20036;-82
2023/05/29 12:30:22;;;;;;;8.00;2.20;;;16.80;71.00;;;;;;4998314;28;20022;-83
2023/05/29 12:32:52;;;;;;;6.85;2.08;;;16.90;71.10;;;;;;4998420;28;20486;-83
2023/05/29 12:35:21;;;;;;;7.18;2.20;;;16.90;71.10;;;;;;4998024;28;20092;-83
2023/05/29 12:38:01;;;;;;;8.45;2.13;;;16.90;71.10;;;;;;4997908;28;20022;-83
2023/05/29 12:40:36;;;;;;;9.87;2.30;;;16.90;71.10;;;;;;4998049;28;20390;-82
2023/05/29 12:43:05;;;;;;;7.50;2.22;;;16.90;71.10;;;;;;4998098;28;20022;-82
2023/05/29 12:45:32;;;;;;;9.75;2.28;;;16.90;71.10;;;;;;5010467;28;20061;-82
2023/05/29 12:48:05;;;;;;;8.48;2.17;;;16.90;71.10;;;;;;4997926;28;20068;-82
2023/05/29 12:50:32;;;;;;;6.32;1.98;;;16.90;71.20;;;;;;5013896;28;20022;-83
2023/05/29 12:53:11;;;;;;;8.07;1.98;;;16.80;71.10;;;;;;4997654;28;20021;-82
2023/05/29 12:55:39;;;;;;;7.63;2.45;;;16.80;71.20;;;;;;4997631;28;20109;-83
2023/05/29 12:58:09;;;;;;;8.38;2.20;;;16.80;71.30;;;;;;5015247;28;20095;-83
2023/05/29 13:00:38;;;;;;;7.78;1.88;;;16.80;71.50;;;;;;4997393;28;20044;-83
2023/05/29 13:03:04;;;;;;;7.93;2.10;;;16.70;71.60;;;;;;5015332;28;20022;-83
2023/05/29 13:05:30;;;;;;;7.63;2.15;;;16.70;71.70;;;;;;4997433;28;20022;-82
2023/05/29 13:07:56;;;;;;;5.82;1.90;;;16.70;71.90;;;;;;4997701;28;20386;-82
2023/05/29 13:10:22;;;;;;;7.72;2.40;;;16.70;72.00;;;;;;5015089;28;20496;-83
2023/05/29 13:12:53;;;;;;;7.93;2.10;;;16.60;72.00;;;;;;4997581;28;20117;-83
2023/05/29 13:15:19;;;;;;;7.93;2.10;;;16.70;72.00;;;;;;4997398;28;20026;-83
2023/05/29 13:17:44;;;;;;;6.97;1.90;;;16.70;72.10;;;;;;5014867;28;20067;-83
2023/05/29 13:20:11;;;;;;;7.63;1.95;;;16.60;72.10;;;;;;5014825;28;20087;-82
2023/05/29 13:22:38;;;;;;;7.03;1.95;;;16.70;72.20;;;;;;5014723;28;20363;-81
2023/05/29 13:25:06;;;;;;;7.00;1.90;;;16.70;72.20;;;;;;4997366;28;20022;-83
2023/05/29 13:27:33;;;;;;;7.75;2.20;;;16.60;72.30;;;;;;4997137;28;20026;-83